createdAt,value
2023-05-18T00:00:13.393Z,9.745442
2023-05-18T00:01:13.396Z,9.745511
2023-05-18T00:02:13.384Z,9.745419
2023-05-18T00:03:13.487Z,9.745481
2023-05-18T00:04:13.396Z,9.745577
2023-05-18T00:05:13.348Z,9.745545
2023-05-18T00:06:13.343Z,9.745589
2023-05-18T00:07:13.335Z,9.745362
2023-05-18T00:08:13.351Z,9.745518
2023-05-18T00:09:13.379Z,9.745570
2023-05-18T00:10:13.330Z,9.745709
2023-05-18T00:11:13.328Z,9.745657
2023-05-18T00:12:13.298Z,9.745428
2023-05-18T00:13:13.322Z,9.744992
2023-05-18T00:14:13.286Z,9.745277
2023-05-18T00:15:13.273Z,9.745403
2023-05-18T00:16:13.312Z,9.745234
2023-05-18T00:17:13.270Z,9.745412
2023-05-18T00:18:13.318Z,9.745443
2023-05-18T00:19:13.266Z,9.745771
2023-05-18T00:20:13.233Z,9.745594
2023-05-18T00:21:13.238Z,9.745536
2023-05-18T00:22:13.221Z,9.745418
2023-05-18T00:23:13.239Z,9.745671
2023-05-18T00:24:13.214Z,9.745325
2023-05-18T00:25:13.206Z,9.745296
2023-05-18T00:26:13.197Z,9.745437
2023-05-18T00:27:13.213Z,9.745316
2023-05-18T00:28:13.281Z,9.745499
2023-05-18T00:29:13.173Z,9.745625
2023-05-18T00:30:13.188Z,9.745620
2023-05-18T00:31:13.198Z,9.745220
2023-05-18T00:32:13.186Z,9.745340
2023-05-18T00:33:13.145Z,9.745202
2023-05-18T00:34:13.126Z,9.744891
2023-05-18T00:35:13.137Z,9.745296
2023-05-18T00:36:13.114Z,9.745535
2023-05-18T00:37:13.135Z,9.745661
2023-05-18T00:38:13.104Z,9.745282
2023-05-18T00:39:13.091Z,9.745214
2023-05-18T00:40:13.102Z,9.745089
2023-05-18T00:41:13.110Z,9.745291
2023-05-18T00:42:13.095Z,9.745238
2023-05-18T00:43:13.065Z,9.745231
2023-05-18T00:44:13.060Z,9.745382
2023-05-18T00:45:13.051Z,9.745346
2023-05-18T00:46:13.094Z,9.745277
2023-05-18T00:47:13.064Z,9.745112
2023-05-18T00:48:13.069Z,9.745343
2023-05-18T00:49:13.028Z,9.745486
2023-05-18T00:50:13.033Z,9.745605
2023-05-18T00:51:13.046Z,9.745514
2023-05-18T00:52:12.993Z,9.745617
2023-05-18T00:53:12.995Z,9.745623
2023-05-18T00:54:12.985Z,9.745510
2023-05-18T00:55:12.981Z,9.745678
2023-05-18T00:56:13.011Z,9.745589
2023-05-18T00:57:12.958Z,9.745521
2023-05-18T00:58:12.953Z,9.745460
2023-05-18T00:59:12.949Z,9.745187
2023-05-18T01:00:12.945Z,9.745374
2023-05-18T01:01:12.996Z,9.745619
2023-05-18T01:02:12.945Z,9.745392
2023-05-18T01:03:13.024Z,9.745790
2023-05-18T01:04:12.910Z,9.745849
2023-05-18T01:05:12.915Z,9.745764
2023-05-18T01:06:12.971Z,9.746126
2023-05-18T01:07:12.918Z,9.745764
2023-05-18T01:08:12.886Z,9.745686
2023-05-18T01:09:12.864Z,9.745379
2023-05-18T01:10:12.887Z,9.745642
2023-05-18T01:11:12.919Z,9.745412
2023-05-18T01:12:12.848Z,9.745563
2023-05-18T01:13:12.834Z,9.745656
2023-05-18T01:14:12.837Z,9.745361
2023-05-18T01:15:12.848Z,9.745251
2023-05-18T01:16:12.808Z,9.745295
2023-05-18T01:17:12.912Z,9.745670
2023-05-18T01:18:12.828Z,9.745532
2023-05-18T01:19:12.870Z,9.745581
2023-05-18T01:20:12.809Z,9.745624
2023-05-18T01:21:12.793Z,9.745320
2023-05-18T01:22:12.773Z,9.745261
2023-05-18T01:23:12.753Z,9.745388
2023-05-18T01:24:12.778Z,9.745384
2023-05-18T01:25:12.778Z,9.745534
2023-05-18T01:26:12.744Z,9.745469
2023-05-18T01:27:12.725Z,9.745073
2023-05-18T01:28:12.717Z,9.745075
2023-05-18T01:29:12.745Z,9.745052
2023-05-18T01:30:12.712Z,9.744969
2023-05-18T01:31:12.705Z,9.745192
2023-05-18T01:32:12.692Z,9.745029
2023-05-18T01:33:12.695Z,9.745049
2023-05-18T01:34:12.704Z,9.745498
2023-05-18T01:35:12.675Z,9.745394
2023-05-18T01:36:12.664Z,9.745478
2023-05-18T01:37:12.651Z,9.745676
2023-05-18T01:38:12.643Z,9.745331
2023-05-18T01:39:12.660Z,9.745729
2023-05-18T01:40:12.631Z,9.745471
2023-05-18T01:41:12.636Z,9.745469
2023-05-18T01:42:12.614Z,9.745469
2023-05-18T01:43:12.642Z,9.745151
2023-05-18T01:44:12.659Z,9.745515
2023-05-18T01:45:12.603Z,9.745833
2023-05-18T01:46:12.613Z,9.745783
2023-05-18T01:47:12.575Z,9.745911
2023-05-18T01:48:12.633Z,9.745774
2023-05-18T01:49:12.568Z,9.745917
2023-05-18T01:50:12.550Z,9.745723
2023-05-18T01:51:12.552Z,9.745445
2023-05-18T01:52:12.553Z,9.745152
2023-05-18T01:53:12.557Z,9.745469
2023-05-18T01:54:12.518Z,9.745489
2023-05-18T01:55:12.508Z,9.745691
2023-05-18T01:56:12.513Z,9.745513
2023-05-18T01:57:12.526Z,9.745648
2023-05-18T01:58:12.522Z,9.745032
2023-05-18T01:59:12.486Z,9.745194
2023-05-18T02:00:12.477Z,9.745308
2023-05-18T02:01:12.479Z,9.745691
2023-05-18T02:02:12.540Z,9.745835
2023-05-18T02:03:12.624Z,9.745657
2023-05-18T02:04:12.569Z,9.745935
2023-05-18T02:05:12.489Z,9.745973
2023-05-18T02:06:12.435Z,9.745690
2023-05-18T02:07:12.454Z,9.745565
2023-05-18T02:08:12.420Z,9.745528
2023-05-18T02:09:12.417Z,9.745661
2023-05-18T02:10:12.466Z,9.745257
2023-05-18T02:11:12.393Z,9.745373
2023-05-18T02:12:12.415Z,9.745630
2023-05-18T02:13:12.385Z,9.745410
2023-05-18T02:14:12.384Z,9.745589
2023-05-18T02:15:12.369Z,9.745470
2023-05-18T02:16:12.427Z,9.745626
2023-05-18T02:17:12.404Z,9.745398
2023-05-18T02:18:12.356Z,9.745057
2023-05-18T02:19:12.398Z,9.745333
2023-05-18T02:20:12.328Z,9.745381
2023-05-18T02:21:12.341Z,9.745573
2023-05-18T02:22:12.308Z,9.745455
2023-05-18T02:23:12.297Z,9.745681
2023-05-18T02:24:12.284Z,9.745558
2023-05-18T02:25:12.278Z,9.745682
2023-05-18T02:26:12.297Z,9.745560
2023-05-18T02:27:12.273Z,9.745504
2023-05-18T02:28:12.256Z,9.745741
2023-05-18T02:29:12.241Z,9.745467
2023-05-18T02:30:14.416Z,9.745481
2023-05-18T02:31:12.269Z,9.745538
2023-05-18T02:32:12.269Z,9.745281
2023-05-18T02:33:12.285Z,9.745284
2023-05-18T02:34:12.224Z,9.745506
2023-05-18T02:35:12.256Z,9.745565
2023-05-18T02:36:12.202Z,9.745592
2023-05-18T02:37:12.181Z,9.746029
2023-05-18T02:38:12.182Z,9.745491
2023-05-18T02:39:12.177Z,9.745546
2023-05-18T02:40:12.206Z,9.745602
2023-05-18T02:41:12.234Z,9.745539
2023-05-18T02:42:12.164Z,9.745733
2023-05-18T02:43:12.145Z,9.745625
2023-05-18T02:44:12.141Z,9.745706
2023-05-18T02:45:12.184Z,9.745635
2023-05-18T02:46:12.137Z,9.745559
2023-05-18T02:47:12.115Z,9.745526
2023-05-18T02:48:12.112Z,9.745597
2023-05-18T02:49:12.132Z,9.745936
2023-05-18T02:50:12.123Z,9.746165
2023-05-18T02:51:12.085Z,9.745693
2023-05-18T02:52:12.075Z,9.745837
2023-05-18T02:53:12.083Z,9.745797
2023-05-18T02:54:12.080Z,9.745749
2023-05-18T02:55:12.082Z,9.745643
2023-05-18T02:56:12.047Z,9.745504
2023-05-18T02:57:12.077Z,9.745403
2023-05-18T02:58:12.030Z,9.745354
2023-05-18T02:59:12.057Z,9.745569
2023-05-18T03:00:12.016Z,9.745456
2023-05-18T03:01:12.054Z,9.745462
2023-05-18T03:02:12.010Z,9.745420
2023-05-18T03:03:12.113Z,9.745467
2023-05-18T03:04:12.005Z,9.745323
2023-05-18T03:05:11.984Z,9.745262
2023-05-18T03:06:11.967Z,9.745431
2023-05-18T03:07:11.982Z,9.745419
2023-05-18T03:08:11.980Z,9.745596
2023-05-18T03:09:11.968Z,9.745728
2023-05-18T03:10:11.942Z,9.745600
2023-05-18T03:11:11.934Z,9.745283
2023-05-18T03:12:11.923Z,9.745331
2023-05-18T03:13:11.944Z,9.745427
2023-05-18T03:14:11.923Z,9.745473
2023-05-18T03:15:11.905Z,9.745414
2023-05-18T03:16:11.953Z,9.745362
2023-05-18T03:17:11.934Z,9.745362
2023-05-18T03:18:11.926Z,9.745463
2023-05-18T03:19:11.905Z,9.745180
2023-05-18T03:20:11.866Z,9.745150
2023-05-18T03:21:11.880Z,9.745245
2023-05-18T03:22:11.886Z,9.745507
2023-05-18T03:23:11.837Z,9.745413
2023-05-18T03:24:11.840Z,9.745430
2023-05-18T03:25:11.827Z,9.745473
2023-05-18T03:26:11.907Z,9.745500
2023-05-18T03:27:11.844Z,9.745494
2023-05-18T03:28:11.813Z,9.745516
2023-05-18T03:29:11.801Z,9.745520
2023-05-18T03:30:11.797Z,9.745435
2023-05-18T03:31:11.799Z,9.745534
2023-05-18T03:32:11.798Z,9.745465
2023-05-18T03:33:11.815Z,9.745535
2023-05-18T03:34:11.765Z,9.745461
2023-05-18T03:35:11.751Z,9.745419
2023-05-18T03:36:11.784Z,9.745420
2023-05-18T03:37:11.773Z,9.745562
2023-05-18T03:38:11.725Z,9.745551
2023-05-18T03:39:11.714Z,9.745488
2023-05-18T03:40:11.708Z,9.745304
2023-05-18T03:41:11.726Z,9.745451
2023-05-18T03:42:11.698Z,9.745553
2023-05-18T03:43:11.687Z,9.745549
2023-05-18T03:44:11.679Z,9.745558
2023-05-18T03:45:11.675Z,9.745597
2023-05-18T03:46:11.713Z,9.745655
2023-05-18T03:47:11.665Z,9.745505
2023-05-18T03:48:11.710Z,9.745402
2023-05-18T03:49:11.644Z,9.745486
2023-05-18T03:50:11.681Z,9.745488
2023-05-18T03:51:11.654Z,9.745592
2023-05-18T03:52:11.629Z,9.745527
2023-05-18T03:53:11.621Z,9.745533
2023-05-18T03:54:11.606Z,9.745487
2023-05-18T03:55:11.654Z,9.745380
2023-05-18T03:56:11.601Z,9.745339
2023-05-18T03:57:11.592Z,9.745181
2023-05-18T03:58:11.585Z,9.745246
2023-05-18T03:59:11.573Z,9.745609
2023-05-18T04:00:11.591Z,9.745270
2023-05-18T04:01:11.572Z,9.745516
2023-05-18T04:02:11.587Z,9.745501
2023-05-18T04:03:11.608Z,9.745289
2023-05-18T04:04:11.596Z,9.745344
2023-05-18T04:05:11.556Z,9.745093
2023-05-18T04:06:11.520Z,9.745457
2023-05-18T04:07:12.065Z,9.745481
2023-05-18T04:08:11.522Z,9.745391
2023-05-18T04:09:11.519Z,9.745194
2023-05-18T04:10:11.531Z,9.745247
2023-05-18T04:11:11.483Z,9.745299
2023-05-18T04:12:11.478Z,9.745280
2023-05-18T04:13:11.478Z,9.745201
2023-05-18T04:14:11.489Z,9.745200
2023-05-18T04:15:11.460Z,9.745474
2023-05-18T04:16:11.481Z,9.745461
2023-05-18T04:17:11.429Z,9.745153
2023-05-18T04:18:12.467Z,9.744345
2023-05-18T04:19:11.516Z,9.744794
2023-05-18T04:20:11.424Z,9.745550
2023-05-18T04:21:11.408Z,9.745263
2023-05-18T04:22:11.402Z,9.745262
2023-05-18T04:23:11.402Z,9.745296
2023-05-18T04:24:11.402Z,9.745442
2023-05-18T04:25:11.383Z,9.745235
2023-05-18T04:26:11.369Z,9.745333
2023-05-18T04:27:11.359Z,9.745550
2023-05-18T04:28:11.355Z,9.745505
2023-05-18T04:29:11.368Z,9.745297
2023-05-18T04:30:11.341Z,9.745189
2023-05-18T04:31:11.328Z,9.745459
2023-05-18T04:32:11.450Z,9.744923
2023-05-18T04:33:11.331Z,9.745427
2023-05-18T04:34:11.331Z,9.745535
2023-05-18T04:35:11.299Z,9.745713
2023-05-18T04:36:11.296Z,9.745700
2023-05-18T04:37:11.280Z,9.745700
2023-05-18T04:38:11.306Z,9.745155
2023-05-18T04:39:11.293Z,9.745269
2023-05-18T04:40:11.257Z,9.745340
2023-05-18T04:41:11.294Z,9.745406
2023-05-18T04:42:11.252Z,9.745425
2023-05-18T04:43:11.260Z,9.745575
2023-05-18T04:44:11.232Z,9.745515
2023-05-18T04:45:11.219Z,9.745570
2023-05-18T04:46:11.235Z,9.745721
2023-05-18T04:47:11.232Z,9.745893
2023-05-18T04:48:11.267Z,9.745521
2023-05-18T04:49:11.192Z,9.745498
2023-05-18T04:50:11.191Z,9.745611
2023-05-18T04:51:11.181Z,9.745689
2023-05-18T04:52:11.224Z,9.745703
2023-05-18T04:53:11.157Z,9.745333
2023-05-18T04:54:11.152Z,9.745588
2023-05-18T04:55:11.151Z,9.745481
2023-05-18T04:56:11.147Z,9.745529
2023-05-18T04:57:11.203Z,9.745028
2023-05-18T04:58:11.119Z,9.745340
2023-05-18T04:59:11.115Z,9.745560
2023-05-18T05:00:11.108Z,9.745400
2023-05-18T05:01:11.142Z,9.745482
2023-05-18T05:02:11.193Z,9.745301
2023-05-18T05:03:11.154Z,9.745592
2023-05-18T05:04:11.075Z,9.745424
2023-05-18T05:05:11.069Z,9.745559
2023-05-18T05:06:11.086Z,9.745485
2023-05-18T05:07:11.080Z,9.745607
2023-05-18T05:08:11.043Z,9.745511
2023-05-18T05:09:11.028Z,9.745609
2023-05-18T05:10:11.027Z,9.745693
2023-05-18T05:11:11.037Z,9.745492
2023-05-18T05:12:11.036Z,9.745547
2023-05-18T05:13:11.003Z,9.745737
2023-05-18T05:14:10.996Z,9.745457
2023-05-18T05:15:10.990Z,9.745627
2023-05-18T05:16:11.052Z,9.745761
2023-05-18T05:17:10.987Z,9.745560
2023-05-18T05:18:11.021Z,9.745587
2023-05-18T05:19:11.010Z,9.745478
2023-05-18T05:20:10.956Z,9.745534
2023-05-18T05:21:10.959Z,9.745223
2023-05-18T05:22:10.928Z,9.745323
2023-05-18T05:23:10.980Z,9.745446
2023-05-18T05:24:10.911Z,9.745517
2023-05-18T05:25:10.900Z,9.745461
2023-05-18T05:26:10.924Z,9.745477
2023-05-18T05:27:10.889Z,9.745284
2023-05-18T05:28:10.883Z,9.745444
2023-05-18T05:29:11.048Z,9.745605
2023-05-18T05:30:10.888Z,9.745528
2023-05-18T05:31:10.942Z,9.745569
2023-05-18T05:32:10.849Z,9.745596
2023-05-18T05:33:10.854Z,9.745337
2023-05-18T05:34:10.824Z,9.745292
2023-05-18T05:35:10.854Z,9.745342
2023-05-18T05:36:10.815Z,9.745165
2023-05-18T05:37:10.807Z,9.745253
2023-05-18T05:38:10.798Z,9.745338
2023-05-18T05:39:10.797Z,9.745552
2023-05-18T05:40:10.802Z,9.745456
2023-05-18T05:41:10.785Z,9.745353
2023-05-18T05:42:10.765Z,9.745443
2023-05-18T05:43:10.760Z,9.745432
2023-05-18T05:44:10.807Z,9.745212
2023-05-18T05:45:10.745Z,9.745450
2023-05-18T05:46:10.737Z,9.745517
2023-05-18T05:47:10.836Z,9.745546
2023-05-18T05:48:13.273Z,9.745750
2023-05-18T05:49:10.742Z,9.745633
2023-05-18T05:50:10.721Z,9.745409
2023-05-18T05:51:10.697Z,9.745238
2023-05-18T05:52:10.704Z,9.745376
2023-05-18T05:53:10.709Z,9.745518
2023-05-18T05:54:10.856Z,9.745292
2023-05-18T05:55:11.679Z,9.745028
2023-05-18T05:56:10.664Z,9.745314
2023-05-18T05:57:10.674Z,9.745522
2023-05-18T05:58:10.702Z,9.745632
2023-05-18T05:59:10.646Z,9.745649
2023-05-18T06:00:10.630Z,9.745429
2023-05-18T06:01:10.666Z,9.745291
2023-05-18T06:02:10.658Z,9.745287
2023-05-18T06:03:10.704Z,9.745307
2023-05-18T06:04:10.755Z,9.745403
2023-05-18T06:05:10.606Z,9.745409
2023-05-18T06:06:10.584Z,9.745331
2023-05-18T06:07:10.614Z,9.745348
2023-05-18T06:08:10.611Z,9.745418
2023-05-18T06:09:10.564Z,9.745477
2023-05-18T06:10:10.557Z,9.745337
2023-05-18T06:11:11.494Z,9.745294
2023-05-18T06:12:11.568Z,9.745459
2023-05-18T06:13:10.530Z,9.745530
2023-05-18T06:14:10.530Z,9.745610
2023-05-18T06:15:10.520Z,9.745558
2023-05-18T06:16:10.557Z,9.745539
2023-05-18T06:17:10.541Z,9.745464
2023-05-18T06:18:12.182Z,9.745417
2023-05-18T06:19:10.525Z,9.745470
2023-05-18T06:20:10.487Z,9.745394
2023-05-18T06:21:10.510Z,9.745800
2023-05-18T06:22:10.488Z,9.745774
2023-05-18T06:23:10.461Z,9.745602
2023-05-18T06:24:10.514Z,9.745893
2023-05-18T06:25:10.446Z,9.745830
2023-05-18T06:26:10.466Z,9.745791
2023-05-18T06:27:10.431Z,9.745590
2023-05-18T06:28:10.431Z,9.745733
2023-05-18T06:29:10.416Z,9.745588
2023-05-18T06:30:10.412Z,9.745571
2023-05-18T06:31:10.434Z,9.745572
2023-05-18T06:32:10.416Z,9.745510
2023-05-18T06:33:10.417Z,9.745470
2023-05-18T06:34:10.380Z,9.745540
2023-05-18T06:35:10.394Z,9.745642
2023-05-18T06:36:10.390Z,9.745403
2023-05-18T06:37:10.357Z,9.745434
2023-05-18T06:38:10.351Z,9.745553
2023-05-18T06:39:10.342Z,9.745535
2023-05-18T06:40:10.367Z,9.745521
2023-05-18T06:41:10.361Z,9.745399
2023-05-18T06:42:10.331Z,9.745521
2023-05-18T06:43:10.315Z,9.745780
2023-05-18T06:44:10.311Z,9.745639
2023-05-18T06:45:10.324Z,9.745271
2023-05-18T06:46:10.377Z,9.745340
2023-05-18T06:47:10.292Z,9.745379
2023-05-18T06:48:10.382Z,9.745577
2023-05-18T06:49:10.263Z,9.745404
2023-05-18T06:50:10.281Z,9.745232
2023-05-18T06:51:10.254Z,9.745288
2023-05-18T06:52:10.250Z,9.745539
2023-05-18T06:53:10.235Z,9.745510
2023-05-18T06:54:10.250Z,9.745491
2023-05-18T06:55:10.244Z,9.745445
2023-05-18T06:56:10.213Z,9.745160
2023-05-18T06:57:10.229Z,9.744844
2023-05-18T06:58:10.196Z,9.744811
2023-05-18T06:59:10.237Z,9.745312
2023-05-18T07:00:10.180Z,9.745385
2023-05-18T07:01:10.219Z,9.745419
2023-05-18T07:02:10.161Z,9.745543
2023-05-18T07:03:10.230Z,9.745404
2023-05-18T07:04:10.217Z,9.745397
2023-05-18T07:05:10.166Z,9.745124
2023-05-18T07:06:10.130Z,9.745369
2023-05-18T07:07:10.120Z,9.745813
2023-05-18T07:08:10.188Z,9.745713
2023-05-18T07:09:10.135Z,9.745438
2023-05-18T07:10:10.104Z,9.745413
2023-05-18T07:11:10.088Z,9.745204
2023-05-18T07:12:10.083Z,9.745318
2023-05-18T07:13:10.077Z,9.745068
2023-05-18T07:14:10.091Z,9.744902
2023-05-18T07:15:10.056Z,9.745346
2023-05-18T07:16:10.101Z,9.745362
2023-05-18T07:17:10.049Z,9.745750
2023-05-18T07:18:10.135Z,9.745035
2023-05-18T07:19:10.112Z,9.744671
2023-05-18T07:20:10.030Z,9.743972
2023-05-18T07:21:10.024Z,9.745597
2023-05-18T07:22:10.013Z,9.745823
2023-05-18T07:23:10.026Z,9.745778
2023-05-18T07:24:09.987Z,9.745840
2023-05-18T07:25:09.981Z,9.745519
2023-05-18T07:26:09.968Z,9.745336
2023-05-18T07:27:09.967Z,9.745631
2023-05-18T07:28:09.982Z,9.745643
2023-05-18T07:29:09.978Z,9.745325
2023-05-18T07:30:09.948Z,9.745489
2023-05-18T07:31:09.958Z,9.746135
2023-05-18T07:32:09.924Z,9.745752
2023-05-18T07:33:09.999Z,9.745599
2023-05-18T07:34:09.918Z,9.745645
2023-05-18T07:35:09.919Z,9.745419
2023-05-18T07:36:09.903Z,9.745652
2023-05-18T07:37:09.898Z,9.745864
2023-05-18T07:38:09.897Z,9.745687
2023-05-18T07:39:10.872Z,9.745773
2023-05-18T07:40:09.878Z,9.745728
2023-05-18T07:41:09.860Z,9.745601
2023-05-18T07:42:09.852Z,9.745452
2023-05-18T07:43:09.865Z,9.745607
2023-05-18T07:44:09.839Z,9.745512
2023-05-18T07:45:09.824Z,9.745462
2023-05-18T07:46:09.862Z,9.745395
2023-05-18T07:47:09.898Z,9.745984
2023-05-18T07:48:09.886Z,9.746323
2023-05-18T07:49:09.797Z,9.746070
2023-05-18T07:50:09.787Z,9.745768
2023-05-18T07:51:09.790Z,9.746055
2023-05-18T07:52:09.811Z,9.746056
2023-05-18T07:53:09.781Z,9.745955
2023-05-18T07:54:09.769Z,9.746344
2023-05-18T07:55:09.764Z,9.746034
2023-05-18T07:56:09.745Z,9.745960
2023-05-18T07:57:09.771Z,9.746296
2023-05-18T07:58:09.729Z,9.746321
2023-05-18T07:59:09.729Z,9.746074
2023-05-18T08:00:09.709Z,9.746331
2023-05-18T08:01:09.732Z,9.746729
2023-05-18T08:02:09.785Z,9.746729
2023-05-18T08:03:09.744Z,9.746166
2023-05-18T08:04:09.784Z,9.745554
2023-05-18T08:05:09.680Z,9.745473
2023-05-18T08:06:09.697Z,9.745437
2023-05-18T08:07:09.686Z,9.745577
2023-05-18T08:08:09.685Z,9.745571
2023-05-18T08:09:09.649Z,9.745656
2023-05-18T08:10:09.640Z,9.745649
2023-05-18T08:11:09.653Z,9.745368
2023-05-18T08:12:09.633Z,9.745332
2023-05-18T08:13:09.616Z,9.745817
2023-05-18T08:14:09.605Z,9.745970
2023-05-18T08:15:09.637Z,9.746039
2023-05-18T08:16:12.349Z,9.745851
2023-05-18T08:17:10.693Z,9.745603
2023-05-18T08:18:09.688Z,9.745502
2023-05-18T08:19:09.602Z,9.745694
2023-05-18T08:20:09.587Z,9.745802
2023-05-18T08:21:09.933Z,9.746107
2023-05-18T08:22:09.544Z,9.745912
2023-05-18T08:23:09.549Z,9.745754
2023-05-18T08:24:09.529Z,9.745504
2023-05-18T08:25:09.568Z,9.745757
2023-05-18T08:26:10.926Z,9.745973
2023-05-18T08:27:09.506Z,9.745979
2023-05-18T08:28:09.516Z,9.745894
2023-05-18T08:29:09.543Z,9.745941
2023-05-18T08:30:09.505Z,9.745750
2023-05-18T08:31:09.467Z,9.745618
2023-05-18T08:32:09.538Z,9.745600
2023-05-18T08:33:09.554Z,9.745581
2023-05-18T08:34:09.476Z,9.745476
2023-05-18T08:35:09.474Z,9.745624
2023-05-18T08:36:09.447Z,9.745489
2023-05-18T08:37:09.422Z,9.745430
2023-05-18T08:38:09.430Z,9.745454
2023-05-18T08:39:09.492Z,9.745595
2023-05-18T08:40:09.415Z,9.745549
2023-05-18T08:41:09.399Z,9.745597
2023-05-18T08:42:09.390Z,9.745349
2023-05-18T08:43:09.382Z,9.745412
2023-05-18T08:44:09.403Z,9.745489
2023-05-18T08:45:09.366Z,9.745646
2023-05-18T08:46:09.355Z,9.745816
2023-05-18T08:47:09.355Z,9.745774
2023-05-18T08:48:09.473Z,9.745583
2023-05-18T08:49:09.371Z,9.745509
2023-05-18T08:50:09.326Z,9.745564
2023-05-18T08:51:09.328Z,9.745705
2023-05-18T08:52:09.329Z,9.745749
2023-05-18T08:53:09.330Z,9.745686
2023-05-18T08:54:09.308Z,9.745345
2023-05-18T08:55:12.006Z,9.745500
2023-05-18T08:56:10.281Z,9.745765
2023-05-18T08:57:09.307Z,9.745689
2023-05-18T08:58:09.324Z,9.745661
2023-05-18T08:59:09.256Z,9.745460
2023-05-18T09:00:09.247Z,9.745490
2023-05-18T09:01:09.263Z,9.745550
2023-05-18T09:02:09.311Z,9.745543
2023-05-18T09:03:09.335Z,9.745518
2023-05-18T09:04:09.220Z,9.745585
2023-05-18T09:05:09.263Z,9.745536
2023-05-18T09:06:09.201Z,9.745185
2023-05-18T09:07:09.224Z,9.745549
2023-05-18T09:08:09.189Z,9.745285
2023-05-18T09:09:09.182Z,9.745493
2023-05-18T09:10:09.187Z,9.745564
2023-05-18T09:11:09.172Z,9.745483
2023-05-18T09:12:09.188Z,9.745500
2023-05-18T09:13:09.173Z,9.745368
2023-05-18T09:14:09.158Z,9.745016
2023-05-18T09:15:09.141Z,9.745079
2023-05-18T09:16:09.179Z,9.745127
2023-05-18T09:17:09.148Z,9.745309
2023-05-18T09:18:09.189Z,9.745302
2023-05-18T09:19:09.171Z,9.745256
2023-05-18T09:20:09.100Z,9.745804
2023-05-18T09:21:09.117Z,9.745853
2023-05-18T09:22:09.088Z,9.745584
2023-05-18T09:23:09.077Z,9.745122
2023-05-18T09:24:09.065Z,9.745225
2023-05-18T09:25:09.069Z,9.745272
2023-05-18T09:26:09.074Z,9.745289
2023-05-18T09:27:09.056Z,9.745227
2023-05-18T09:28:09.073Z,9.745337
2023-05-18T09:29:09.037Z,9.745189
2023-05-18T09:30:09.040Z,9.745298
2023-05-18T09:31:09.132Z,9.745386
2023-05-18T09:32:09.058Z,9.745358
2023-05-18T09:33:09.154Z,9.745593
2023-05-18T09:34:09.095Z,9.745378
2023-05-18T09:35:09.414Z,9.745317
2023-05-18T09:36:08.979Z,9.745577
2023-05-18T09:37:08.971Z,9.745302
2023-05-18T09:38:08.952Z,9.745256
2023-05-18T09:39:08.951Z,9.745274
2023-05-18T09:40:08.991Z,9.745479
2023-05-18T09:41:08.935Z,9.745411
2023-05-18T09:42:08.932Z,9.745555
2023-05-18T09:43:08.916Z,9.745321
2023-05-18T09:44:08.934Z,9.745550
2023-05-18T09:45:08.924Z,9.745520
2023-05-18T09:46:08.906Z,9.745511
2023-05-18T09:47:08.999Z,9.745489
2023-05-18T09:48:08.928Z,9.745631
2023-05-18T09:49:08.898Z,9.745476
2023-05-18T09:50:08.869Z,9.745497
2023-05-18T09:51:08.860Z,9.745509
2023-05-18T09:52:08.872Z,9.745576
2023-05-18T09:53:08.849Z,9.745335
2023-05-18T09:54:08.875Z,9.745290
2023-05-18T09:55:08.829Z,9.745353
2023-05-18T09:56:08.827Z,9.745500
2023-05-18T09:57:11.480Z,9.745568
2023-05-18T09:58:09.825Z,9.745685
2023-05-18T09:59:08.837Z,9.745640
2023-05-18T10:00:08.807Z,9.745386
2023-05-18T10:01:08.884Z,9.745538
2023-05-18T10:02:08.927Z,9.745469
2023-05-18T10:03:08.843Z,9.745663
2023-05-18T10:04:08.809Z,9.745579
2023-05-18T10:05:08.756Z,9.745373
2023-05-18T10:06:08.750Z,9.745395
2023-05-18T10:07:08.740Z,9.745810
2023-05-18T10:08:08.746Z,9.745670
2023-05-18T10:09:09.727Z,9.745564
2023-05-18T10:10:09.332Z,9.745658
2023-05-18T10:11:09.703Z,9.745637
2023-05-18T10:12:08.727Z,9.746093
2023-05-18T10:13:08.716Z,9.745842
2023-05-18T10:14:08.723Z,9.745884
2023-05-18T10:15:08.666Z,9.745263
2023-05-18T10:16:09.673Z,9.745340
2023-05-18T10:17:15.609Z,9.745669
2023-05-18T10:18:10.723Z,9.745750
2023-05-18T10:19:08.721Z,9.745597
2023-05-18T10:20:08.636Z,9.745678
2023-05-18T10:21:08.633Z,9.745542
2023-05-18T10:22:08.647Z,9.745399
2023-05-18T10:23:08.618Z,9.745252
2023-05-18T10:24:08.614Z,9.745656
2023-05-18T10:25:08.600Z,9.745577
2023-05-18T10:26:08.622Z,9.745102
2023-05-18T10:27:08.613Z,9.745132
2023-05-18T10:28:08.587Z,9.745169
2023-05-18T10:29:08.569Z,9.745505
2023-05-18T10:30:09.558Z,9.745124
2023-05-18T10:31:08.620Z,9.745423
2023-05-18T10:32:08.568Z,9.745634
2023-05-18T10:33:20.654Z,9.745634
2023-05-18T10:34:10.546Z,9.745579
2023-05-18T10:35:08.524Z,9.745574
2023-05-18T10:36:08.555Z,9.745623
2023-05-18T10:37:11.007Z,9.745688
2023-05-18T10:38:08.503Z,9.745547
2023-05-18T10:39:08.494Z,9.745210
2023-05-18T10:40:08.487Z,9.745113
2023-05-18T10:41:08.516Z,9.745446
2023-05-18T10:42:08.486Z,9.745718
2023-05-18T10:43:08.462Z,9.745853
2023-05-18T10:44:08.454Z,9.745624
2023-05-18T10:45:08.448Z,9.745591
2023-05-18T10:46:08.619Z,9.745420
2023-05-18T10:47:08.545Z,9.745472
2023-05-18T10:48:08.475Z,9.745704
2023-05-18T10:49:08.415Z,9.745742
2023-05-18T10:50:08.444Z,9.745307
2023-05-18T10:51:08.439Z,9.745374
2023-05-18T10:52:08.391Z,9.745272
2023-05-18T10:53:08.388Z,9.745587
2023-05-18T10:54:08.433Z,9.745366
2023-05-18T10:55:08.400Z,9.745337
2023-05-18T10:56:08.364Z,9.745570
2023-05-18T10:57:08.382Z,9.745634
2023-05-18T10:58:08.351Z,9.745591
2023-05-18T10:59:08.334Z,9.745435
2023-05-18T11:00:08.364Z,9.745604
2023-05-18T11:01:08.342Z,9.745803
2023-05-18T11:02:08.380Z,9.745568
2023-05-18T11:03:08.329Z,9.745619
2023-05-18T11:04:08.321Z,9.745663
2023-05-18T11:05:08.436Z,9.745717
2023-05-18T11:06:08.289Z,9.745560
2023-05-18T11:07:08.277Z,9.745318
2023-05-18T11:08:08.284Z,9.745342
2023-05-18T11:09:08.289Z,9.745752
2023-05-18T11:10:08.269Z,9.745604
2023-05-18T11:11:08.276Z,9.745507
2023-05-18T11:12:08.232Z,9.745394
2023-05-18T11:13:08.224Z,9.745577
2023-05-18T11:14:08.237Z,9.745559
2023-05-18T11:15:08.248Z,9.745697
2023-05-18T11:16:08.373Z,9.745537
2023-05-18T11:17:08.189Z,9.745401
2023-05-18T11:18:08.233Z,9.745260
2023-05-18T11:19:08.228Z,9.745545
2023-05-18T11:20:08.202Z,9.745521
2023-05-18T11:21:08.158Z,9.745507
2023-05-18T11:22:08.162Z,9.745570
2023-05-18T11:23:08.152Z,9.745472
2023-05-18T11:24:08.165Z,9.745446
2023-05-18T11:25:08.142Z,9.745296
2023-05-18T11:26:08.126Z,9.745372
2023-05-18T11:27:08.117Z,9.745372
2023-05-18T11:28:08.128Z,9.745713
2023-05-18T11:29:08.121Z,9.745788
2023-05-18T11:30:15.605Z,9.745493
2023-05-18T11:31:10.088Z,9.745310
2023-05-18T11:32:08.373Z,9.745039
2023-05-18T11:33:09.275Z,9.745173
2023-05-18T11:34:08.056Z,9.745458
2023-05-18T11:35:08.052Z,9.745474
2023-05-18T11:36:08.043Z,9.744896
2023-05-18T11:37:08.035Z,9.745008
2023-05-18T11:38:08.051Z,9.745605
2023-05-18T11:39:08.019Z,9.745729
2023-05-18T11:40:10.845Z,9.745514
2023-05-18T11:41:09.002Z,9.745407
2023-05-18T11:42:08.043Z,9.745161
2023-05-18T11:43:08.021Z,9.745185
2023-05-18T11:44:07.997Z,9.745082